Time;durP1;ratioP1;P1;durP2;ratioP2;P2;SDS_P1;SDS_P2;PMS_P1;PMS_P2;Temp;Humidity;BMP_temperature;BMP_pressure;BME280_temperature;BME280_humidity;BME280_pressure;Samples;Min_cycle;Max_cycle;Signal;HPM_P1;HPM_P2
2023/10/01 00:01:27;;;;;;;3.90;3.57;;;;;;;16.04;85.58;96419.09;4356201;32;20310;-60
2023/10/01 00:03:55;;;;;;;4.27;3.97;;;;;;;15.89;88.55;96421.31;4350021;32;20275;-60
2023/10/01 00:06:24;;;;;;;3.60;3.23;;;;;;;15.96;86.38;96421.72;4361044;32;20188;-60
2023/10/01 00:08:53;;;;;;;4.13;3.70;;;;;;;16.07;86.61;96418.50;4352650;32;20196;-60
2023/10/01 00:11:19;;;;;;;7.47;4.30;;;;;;;15.80;86.90;96422.00;4340140;32;20232;-60
2023/10/01 00:13:45;;;;;;;3.93;3.47;;;;;;;16.01;87.42;96421.59;4368368;32;20231;-60
2023/10/01 00:16:12;;;;;;;4.70;3.87;;;;;;;16.05;87.46;96420.69;4373995;32;20184;-60
2023/10/01 00:18:38;;;;;;;6.23;3.63;;;;;;;16.09;87.15;96426.25;4368908;32;20192;-60
2023/10/01 00:21:05;;;;;;;3.80;3.00;;;;;;;15.72;87.14;96421.94;4366107;32;20242;-60
2023/10/01 00:23:31;;;;;;;3.37;3.17;;;;;;;15.82;88.71;96422.50;4368162;32;20245;-60
2023/10/01 00:25:58;;;;;;;3.77;3.43;;;;;;;15.94;87.53;96415.88;4345657;32;20193;-60
2023/10/01 00:28:24;;;;;;;3.43;3.07;;;;;;;15.70;88.79;96413.41;4341744;32;20283;-60
2023/10/01 00:30:52;;;;;;;4.27;3.87;;;;;;;15.89;88.33;96419.44;4348673;32;20200;-60
2023/10/01 00:33:18;;;;;;;3.80;2.40;;;;;;;15.84;87.81;96424.09;4331252;32;20197;-60
2023/10/01 00:36:06;;;;;;;3.73;3.43;;;;;;;15.85;86.32;96420.31;4316621;32;20189;-60
2023/10/01 00:38:37;;;;;;;2.70;2.20;;;;;;;16.02;87.67;96420.50;4350276;32;20189;-60
2023/10/01 00:41:04;;;;;;;2.40;2.30;;;;;;;15.70;85.31;96416.88;4345552;32;20185;-61
2023/10/01 00:43:31;;;;;;;4.10;3.13;;;;;;;15.95;87.78;96420.13;4380940;32;20200;-60
2023/10/01 00:46:01;;;;;;;4.20;3.90;;;;;;;15.89;88.08;96415.97;4352462;32;20198;-60
2023/10/01 00:48:29;;;;;;;4.53;3.90;;;;;;;15.73;88.35;96416.28;4350532;32;20199;-60
2023/10/01 00:50:58;;;;;;;3.73;3.07;;;;;;;15.82;87.51;96411.81;4336674;32;21103;-60
2023/10/01 00:53:24;;;;;;;2.87;2.67;;;;;;;15.69;87.29;96403.81;4360671;32;20184;-60
2023/10/01 00:55:51;;;;;;;3.40;3.10;;;;;;;15.51;87.09;96404.66;4346853;32;20202;-60
2023/10/01 00:58:18;;;;;;;3.23;3.03;;;;;;;15.56;88.18;96405.41;4343539;32;20219;-60
2023/10/01 01:00:49;;;;;;;4.70;3.13;;;;;;;15.58;89.01;96411.25;4313339;32;20205;-60
2023/10/01 01:03:22;;;;;;;3.33;3.07;;;;;;;15.54;89.61;96402.19;4346372;32;20193;-60
2023/10/01 01:08:33;;;;;;;3.20;2.70;;;;;;;15.42;89.11;96396.53;4377242;32;20192;-60
2023/10/01 01:11:04;;;;;;;3.33;3.13;;;;;;;15.46;89.45;96395.66;4339946;32;20208;-60
2023/10/01 01:13:34;;;;;;;3.70;3.47;;;;;;;15.46;89.65;96394.84;4333642;32;20196;-60
2023/10/01 01:16:05;;;;;;;4.23;3.10;;;;;;;15.56;89.75;96397.38;4352121;32;20197;-61
2023/10/01 01:18:36;;;;;;;8.17;4.27;;;;;;;15.43;89.65;96401.59;4353742;32;20212;-60
2023/10/01 01:21:15;;;;;;;2.13;2.03;;;;;;;15.35;89.97;96396.16;4346058;32;20188;-60
2023/10/01 01:23:42;;;;;;;6.93;2.93;;;;;;;15.57;89.15;96398.16;4367114;32;20257;-60
2023/10/01 01:26:22;;;;;;;3.90;3.37;;;;;;;15.59;90.01;96386.06;4340884;32;20197;-61
2023/10/01 01:28:49;;;;;;;4.20;3.77;;;;;;;15.62;89.08;96398.84;4355666;32;20200;-60
2023/10/01 01:31:18;;;;;;;2.33;2.23;;;;;;;15.51;89.40;96394.75;4374513;32;20223;-60
2023/10/01 01:33:52;;;;;;;3.93;3.63;;;;;;;15.71;88.51;96394.38;4358824;32;20200;-60
2023/10/01 01:36:21;;;;;;;3.20;2.90;;;;;;;15.61;88.88;96399.12;4348802;32;20232;-60
2023/10/01 01:39:12;;;;;;;10.70;2.60;;;;;;;15.62;88.77;96398.84;4365036;32;20197;-60
2023/10/01 01:41:48;;;;;;;3.23;2.40;;;;;;;15.52;89.26;96396.34;4352421;32;20213;-60
2023/10/01 01:44:16;;;;;;;2.97;2.33;;;;;;;15.64;89.08;96395.87;4368119;32;20303;-60
2023/10/01 01:46:47;;;;;;;3.27;2.77;;;;;;;15.70;89.46;96392.81;4362537;32;20196;-60
2023/10/01 01:49:15;;;;;;;3.23;2.77;;;;;;;15.62;88.91;96395.37;4351739;32;20204;-60
2023/10/01 01:51:56;;;;;;;4.97;3.80;;;;;;;15.47;88.42;96396.44;4334144;32;20208;-61
2023/10/01 01:54:39;;;;;;;3.47;3.23;;;;;;;15.54;89.41;96391.50;4375396;32;20185;-61
2023/10/01 01:57:23;;;;;;;2.43;2.30;;;;;;;15.43;89.87;96396.25;4318435;32;20236;-61
2023/10/01 01:59:49;;;;;;;4.93;3.50;;;;;;;15.61;89.08;96389.22;4360373;32;20224;-60
2023/10/01 02:02:17;;;;;;;3.57;3.27;;;;;;;15.58;88.54;96389.84;4370240;32;20196;-61
2023/10/01 02:05:09;;;;;;;3.40;2.83;;;;;;;15.55;89.69;96390.41;4349437;32;20197;-61
2023/10/01 02:08:06;;;;;;;2.93;2.73;;;;;;;15.45;88.17;96387.91;4351653;32;20204;-61
2023/10/01 02:10:44;;;;;;;4.37;3.50;;;;;;;15.48;88.88;96387.34;4353969;32;20208;-62
2023/10/01 02:13:13;;;;;;;2.70;2.50;;;;;;;15.50;89.55;96377.12;4351479;32;20252;-61
2023/10/01 02:15:42;;;;;;;2.80;2.70;;;;;;;15.33;89.94;96376.94;4340938;32;20234;-61
2023/10/01 02:18:20;;;;;;;6.07;3.53;;;;;;;15.40;88.99;96375.44;4351890;32;20197;-61
2023/10/01 02:20:56;;;;;;;3.00;2.77;;;;;;;15.39;89.22;96378.41;4355626;32;20246;-61
2023/10/01 02:23:32;;;;;;;3.93;2.87;;;;;;;15.46;89.65;96374.25;4346642;32;20252;-61
2023/10/01 02:26:06;;;;;;;2.90;2.63;;;;;;;15.48;89.77;96381.97;4369120;32;20197;-61
2023/10/01 02:28:36;;;;;;;7.93;3.77;;;;;;;15.42;90.79;96380.50;4320715;32;20255;-61
2023/10/01 02:31:03;;;;;;;2.53;2.40;;;;;;;15.43;90.58;96384.75;4308094;32;20211;-61
2023/10/01 02:36:22;;;;;;;5.57;4.40;;;;;;;15.20;90.23;96378.50;4365844;32;20284;-61
2023/10/01 02:38:53;;;;;;;4.53;2.90;;;;;;;15.37;90.86;96372.59;4360389;32;20185;-61
2023/10/01 02:41:25;;;;;;;4.53;3.67;;;;;;;15.51;89.76;96372.56;4344045;32;20235;-60
2023/10/01 02:43:53;;;;;;;2.57;2.37;;;;;;;15.34;88.58;96370.50;4349801;32;20189;-60
2023/10/01 02:46:27;;;;;;;3.10;2.83;;;;;;;15.41;88.99;96370.88;4380345;32;20220;-61
2023/10/01 02:48:59;;;;;;;4.33;2.87;;;;;;;15.06;90.05;96378.50;4366079;32;20197;-61
2023/10/01 02:51:38;;;;;;;2.93;2.47;;;;;;;14.94;90.22;96375.53;4368403;32;20261;-61
2023/10/01 02:54:29;;;;;;;3.50;3.20;;;;;;;15.13;90.59;96370.91;4336800;32;20185;-61
2023/10/01 03:00:10;;;;;;;2.93;2.63;;;;;;;14.99;90.84;96367.41;4348173;32;20275;-60
2023/10/01 03:02:25;;;;;;;3.20;2.93;;;;;;;15.00;89.62;96368.97;4347656;32;20211;-60
2023/10/01 03:04:52;;;;;;;3.30;3.00;;;;;;;15.20;90.58;96372.37;4361864;32;20208;-60
2023/10/01 03:07:24;;;;;;;2.97;2.70;;;;;;;14.96;91.37;96384.03;4360338;32;20203;-61
2023/10/01 03:09:53;;;;;;;3.33;2.50;;;;;;;15.21;91.20;96379.28;4374858;32;20237;-61
2023/10/01 03:12:34;;;;;;;4.60;4.17;;;;;;;15.03;90.21;96371.06;4367525;32;20184;-60
2023/10/01 03:15:16;;;;;;;5.40;3.07;;;;;;;15.12;90.85;96371.19;4340727;32;20287;-61
2023/10/01 03:17:57;;;;;;;10.60;3.00;;;;;;;15.16;89.87;96371.41;4356565;32;20247;-60
2023/10/01 03:23:25;;;;;;;5.07;3.97;;;;;;;15.25;90.85;96361.56;4341745;32;20196;-60
2023/10/01 03:28:32;;;;;;;13.83;4.07;;;;;;;15.15;89.71;96367.94;4361937;32;20200;-61
2023/10/01 03:31:08;;;;;;;3.50;3.20;;;;;;;15.04;90.71;96359.28;4368067;32;20243;-60
2023/10/01 03:33:40;;;;;;;2.80;2.60;;;;;;;14.89;91.49;96364.13;4342674;32;20188;-60
2023/10/01 03:36:12;;;;;;;8.07;3.53;;;;;;;15.04;91.64;96353.16;4336297;32;20237;-60
2023/10/01 03:38:44;;;;;;;3.83;3.53;;;;;;;15.01;90.76;96367.91;4346328;32;20186;-60
2023/10/01 03:41:21;;;;;;;4.43;3.60;;;;;;;15.04;91.58;96359.28;4297932;32;20253;-61
2023/10/01 03:43:50;;;;;;;2.90;2.30;;;;;;;15.07;90.35;96361.38;4358719;32;20204;-61
2023/10/01 03:46:26;;;;;;;2.37;2.23;;;;;;;14.83;90.67;96360.75;4325989;32;20237;-61
2023/10/01 03:52:22;;;;;;;2.80;2.60;;;;;;;14.77;92.15;96361.91;4375018;32;20212;-60
2023/10/01 03:55:15;;;;;;;2.27;2.17;;;;;;;14.93;91.66;96367.81;4374081;32;20207;-61
2023/10/01 03:57:54;;;;;;;3.00;2.70;;;;;;;15.04;91.30;96353.94;4324254;32;20222;-60
2023/10/01 04:00:40;;;;;;;4.47;3.70;;;;;;;15.09;91.60;96367.22;4343009;32;20294;-60
2023/10/01 04:03:17;;;;;;;4.13;3.83;;;;;;;14.99;92.30;96367.41;4334277;32;20235;-61
2023/10/01 04:05:46;;;;;;;3.67;3.37;;;;;;;15.12;91.31;96366.63;4348079;32;20287;-61
2023/10/01 04:08:14;;;;;;;4.73;3.50;;;;;;;15.12;90.80;96371.97;4362744;32;20192;-60
2023/10/01 04:10:41;;;;;;;13.20;4.17;;;;;;;14.98;90.89;96373.81;4366449;32;20243;-60
2023/10/01 04:13:20;;;;;;;3.63;3.33;;;;;;;15.03;90.25;96367.59;4362491;32;20191;-60
2023/10/01 04:15:57;;;;;;;3.40;3.20;;;;;;;15.16;90.81;96369.50;4373004;32;20184;-61
2023/10/01 04:18:28;;;;;;;3.57;3.27;;;;;;;15.24;90.32;96363.47;4353559;32;20201;-60
2023/10/01 04:23:49;;;;;;;3.83;3.53;;;;;;;15.22;90.45;96368.31;4352746;32;20256;-60
2023/10/01 04:26:22;;;;;;;4.20;3.37;;;;;;;15.08;90.54;96359.50;4330929;32;20191;-60
2023/10/01 04:28:54;;;;;;;5.00;3.37;;;;;;;14.86;90.12;96368.19;4364728;32;20239;-60
2023/10/01 04:34:11;;;;;;;2.90;2.70;;;;;;;15.04;91.19;96363.84;4320265;32;20238;-61
2023/10/01 04:36:50;;;;;;;4.13;3.77;;;;;;;15.11;90.76;96374.94;4322523;32;20189;-61
2023/10/01 04:39:17;;;;;;;5.17;3.73;;;;;;;14.88;88.76;96374.03;4348924;32;20188;-60
2023/10/01 04:41:45;;;;;;;6.27;4.03;;;;;;;15.06;90.75;96367.81;4360107;32;20189;-60
2023/10/01 04:44:19;;;;;;;6.43;3.13;;;;;;;14.89;90.95;96370.25;4331919;32;20189;-60
2023/10/01 04:46:46;;;;;;;3.17;2.87;;;;;;;14.87;91.63;96364.41;4370026;32;20189;-60
2023/10/01 04:49:31;;;;;;;3.00;2.70;;;;;;;14.95;90.88;96370.97;4355644;32;20193;-61
2023/10/01 04:52:10;;;;;;;3.37;3.07;;;;;;;14.80;90.80;96369.34;4320351;32;20194;-60
2023/10/01 04:54:44;;;;;;;6.93;3.40;;;;;;;14.76;89.92;96371.81;4310225;32;20201;-60
2023/10/01 04:57:12;;;;;;;5.97;3.90;;;;;;;14.87;91.07;96366.31;4363655;32;20293;-60
2023/10/01 04:59:56;;;;;;;2.87;2.57;;;;;;;14.83;91.04;96359.94;4337033;32;20213;-60
2023/10/01 05:02:23;;;;;;;3.43;2.70;;;;;;;14.71;91.09;96369.25;4357640;32;20284;-60
2023/10/01 05:04:51;;;;;;;2.73;2.57;;;;;;;14.84;91.13;96370.34;4360563;32;20189;-61
2023/10/01 05:07:18;;;;;;;3.77;3.40;;;;;;;14.90;90.74;96363.03;4344638;32;20188;-60
2023/10/01 05:09:45;;;;;;;3.53;3.23;;;;;;;15.05;91.37;96362.75;4322983;32;20200;-60
2023/10/01 05:12:12;;;;;;;3.07;2.83;;;;;;;15.11;90.83;96366.94;4342523;32;20326;-60
2023/10/01 05:14:59;;;;;;;3.40;3.10;;;;;;;14.90;90.67;96366.50;4361734;32;20190;-60
2023/10/01 05:17:30;;;;;;;4.33;3.33;;;;;;;15.04;90.92;96375.31;4357576;32;20187;-60
2023/10/01 05:20:08;;;;;;;4.00;3.77;;;;;;;14.99;90.94;96377.28;4342083;32;20255;-60
2023/10/01 05:22:46;;;;;;;3.07;2.37;;;;;;;14.99;91.20;96377.28;4341452;32;20297;-61
2023/10/01 05:25:13;;;;;;;6.50;2.93;;;;;;;14.80;91.21;96385.38;4322863;33;20216;-60
2023/10/01 05:27:43;;;;;;;2.90;2.70;;;;;;;15.06;91.65;96375.81;4336731;32;20195;-60
2023/10/01 05:30:38;;;;;;;1.90;1.80;;;;;;;14.98;91.16;96381.84;4349770;32;20232;-60
2023/10/01 05:33:11;;;;;;;3.07;2.70;;;;;;;15.00;91.02;96387.69;4358423;32;20223;-61
2023/10/01 05:35:48;;;;;;;2.13;2.03;;;;;;;14.92;90.62;96387.59;4341795;32;20245;-60
2023/10/01 05:38:16;;;;;;;3.43;2.90;;;;;;;14.86;90.82;96388.75;4354726;32;20236;-60
2023/10/01 05:40:54;;;;;;;5.13;3.27;;;;;;;14.99;91.33;96394.13;4364252;32;20188;-61
2023/10/01 05:43:27;;;;;;;2.63;2.43;;;;;;;14.92;91.42;96393.72;4360467;32;20204;-60
2023/10/01 05:46:01;;;;;;;1.60;1.50;;;;;;;14.95;89.79;96387.00;4349478;32;20228;-60
2023/10/01 05:48:34;;;;;;;2.83;2.63;;;;;;;15.04;90.75;96386.03;4351063;32;20293;-60
2023/10/01 05:51:06;;;;;;;3.73;2.77;;;;;;;15.05;90.46;96387.59;4335209;32;20196;-60
2023/10/01 05:53:36;;;;;;;3.07;2.77;;;;;;;15.01;90.38;96386.59;4357492;32;20227;-60
2023/10/01 05:56:24;;;;;;;2.07;1.97;;;;;;;14.96;89.95;96389.38;4354767;32;20215;-61
2023/10/01 05:58:52;;;;;;;2.70;2.50;;;;;;;15.05;90.38;96382.25;4360262;32;20292;-61
2023/10/01 06:01:21;;;;;;;3.93;2.93;;;;;;;15.15;90.75;96380.50;4347470;32;20201;-60
2023/10/01 06:03:50;;;;;;;3.37;3.17;;;;;;;15.17;90.29;96381.78;4345874;32;20203;-60
2023/10/01 06:06:27;;;;;;;5.00;3.37;;;;;;;15.15;90.00;96375.16;4345531;32;20291;-60
2023/10/01 06:09:00;;;;;;;5.43;4.43;;;;;;;15.14;90.31;96374.38;4356382;32;23209;-60
2023/10/01 06:14:39;;;;;;;2.80;2.70;;;;;;;15.18;90.79;96382.56;4349509;32;20198;-60
2023/10/01 06:17:07;;;;;;;6.73;3.13;;;;;;;15.14;90.82;96385.06;4358568;32;20241;-61
2023/10/01 06:19:34;;;;;;;5.27;3.40;;;;;;;15.21;90.46;96373.94;4373509;32;20223;-60
2023/10/01 06:24:49;;;;;;;4.03;3.23;;;;;;;15.28;90.30;96374.34;4337831;32;20255;-60
2023/10/01 06:27:18;;;;;;;5.27;3.47;;;;;;;15.24;90.28;96379.50;4333871;32;20224;-61
2023/10/01 06:29:51;;;;;;;7.13;4.10;;;;;;;15.37;89.75;96377.94;4359567;32;20208;-60
2023/10/01 06:32:22;;;;;;;4.10;3.40;;;;;;;15.25;89.88;96382.97;4354203;32;20208;-60
2023/10/01 06:34:57;;;;;;;8.53;3.60;;;;;;;15.42;89.95;96385.84;4338077;32;20189;-60
2023/10/01 06:37:27;;;;;;;3.47;3.17;;;;;;;15.41;89.80;96397.63;4346507;32;20285;-60
2023/10/01 06:40:29;;;;;;;1.60;1.60;;;;;;;15.40;90.53;96396.03;4339455;32;20248;-61
2023/10/01 06:42:55;;;;;;;5.53;3.57;;;;;;;15.52;90.49;96400.91;4356870;32;20264;-60
2023/10/01 06:45:38;;;;;;;7.93;3.40;;;;;;;15.50;89.60;96401.19;4342884;32;20255;-60
2023/10/01 06:48:24;;;;;;;3.83;3.10;;;;;;;15.58;89.08;96400.56;4337443;32;20216;-60
2023/10/01 06:50:51;;;;;;;2.80;2.60;;;;;;;15.63;90.09;96408.44;4363671;32;20203;-60
2023/10/01 06:53:17;;;;;;;31.03;4.53;;;;;;;15.65;89.84;96405.47;4370121;32;20230;-60
2023/10/01 06:55:47;;;;;;;3.23;2.63;;;;;;;15.68;89.16;96408.34;4357497;32;20192;-61
2023/10/01 06:58:13;;;;;;;8.23;3.00;;;;;;;15.73;89.43;96413.63;4339723;32;20214;-61
2023/10/01 07:00:41;;;;;;;3.33;3.03;;;;;;;15.73;90.78;96410.94;4375282;32;20211;-60
2023/10/01 07:03:21;;;;;;;2.77;2.60;;;;;;;15.81;90.00;96415.56;4370022;32;20193;-61
2023/10/01 07:05:56;;;;;;;5.13;3.23;;;;;;;15.84;89.95;96408.03;4336809;32;20197;-60
2023/10/01 07:08:43;;;;;;;2.90;2.80;;;;;;;15.86;90.19;96417.34;4354050;32;20207;-60
2023/10/01 07:11:18;;;;;;;4.87;2.17;;;;;;;15.87;88.95;96408.22;4339019;32;20208;-60
2023/10/01 07:13:44;;;;;;;5.00;3.40;;;;;;;15.85;90.79;96420.31;4345572;32;20189;-61
2023/10/01 07:16:17;;;;;;;3.67;3.37;;;;;;;15.94;90.65;96422.00;4352133;32;20288;-61
2023/10/01 07:18:45;;;;;;;3.37;3.17;;;;;;;15.96;90.11;96419.81;4375143;32;20212;-61
2023/10/01 07:21:12;;;;;;;3.20;3.00;;;;;;;15.98;89.86;96425.69;4346593;32;20259;-60
2023/10/01 07:23:42;;;;;;;3.47;3.07;;;;;;;15.99;89.90;96426.47;4338386;32;20213;-61
2023/10/01 07:26:12;;;;;;;2.57;2.47;;;;;;;16.12;90.00;96425.63;4317381;32;20205;-61
2023/10/01 07:28:52;;;;;;;5.13;3.27;;;;;;;16.11;89.55;96421.38;4349574;32;20200;-60
2023/10/01 07:31:20;;;;;;;3.10;2.77;;;;;;;16.17;89.93;96419.37;4362845;32;20192;-60
2023/10/01 07:33:48;;;;;;;3.70;3.43;;;;;;;16.25;90.13;96424.00;4334902;32;20189;-60
2023/10/01 07:36:17;;;;;;;3.20;2.90;;;;;;;16.28;89.37;96424.19;4336483;32;20215;-60
2023/10/01 07:38:52;;;;;;;3.90;3.67;;;;;;;16.31;89.90;96434.31;4306544;32;20202;-60
2023/10/01 07:41:27;;;;;;;3.43;3.23;;;;;;;16.39;89.92;96427.47;4352716;32;20208;-60
2023/10/01 07:43:55;;;;;;;5.60;3.57;;;;;;;16.35;89.24;96427.28;4359211;32;20270;-60
2023/10/01 07:46:23;;;;;;;4.77;4.27;;;;;;;16.50;89.23;96429.59;4320804;32;20241;-60
2023/10/01 07:48:51;;;;;;;7.97;4.13;;;;;;;16.56;89.45;96429.47;4359286;32;20211;-60
2023/10/01 07:51:28;;;;;;;7.03;3.07;;;;;;;16.49;88.68;96430.69;4350129;32;20197;-61
2023/10/01 07:54:02;;;;;;;5.13;3.57;;;;;;;16.61;88.41;96432.06;4337158;32;20202;-61
2023/10/01 07:56:32;;;;;;;3.73;3.43;;;;;;;16.64;88.91;96440.28;4323032;32;20253;-60
2023/10/01 08:01:43;;;;;;;5.60;3.63;;;;;;;16.80;88.64;96444.19;4361620;32;20222;-60
2023/10/01 08:07:15;;;;;;;2.37;2.27;;;;;;;16.85;88.66;96435.22;4338975;32;20213;-61
2023/10/01 08:09:46;;;;;;;6.60;4.23;;;;;;;16.88;87.10;96441.87;4339183;32;20241;-61
2023/10/01 08:12:15;;;;;;;4.30;3.73;;;;;;;16.99;86.61;96444.00;4343877;32;20197;-60
2023/10/01 08:14:41;;;;;;;5.00;4.20;;;;;;;17.04;87.63;96443.84;4359134;32;20266;-60
2023/10/01 08:17:08;;;;;;;3.57;3.37;;;;;;;17.16;88.30;96441.41;4348379;32;20202;-61
2023/10/01 08:19:49;;;;;;;8.27;3.43;;;;;;;17.20;87.14;96438.91;4336604;32;20193;-61
2023/10/01 08:22:23;;;;;;;6.77;3.03;;;;;;;17.30;87.81;96443.22;4335152;32;20233;-61
2023/10/01 08:24:54;;;;;;;8.37;3.63;;;;;;;17.33;86.94;96435.34;4374930;32;20184;-60
2023/10/01 08:27:34;;;;;;;3.83;3.17;;;;;;;17.39;86.49;96433.31;4366617;32;20226;-60
2023/10/01 08:30:18;;;;;;;8.77;4.47;;;;;;;17.35;85.42;96430.47;4335582;32;20212;-60
2023/10/01 08:32:53;;;;;;;4.40;3.30;;;;;;;17.36;86.26;96437.41;4379099;32;20203;-60
2023/10/01 08:35:23;;;;;;;4.40;3.70;;;;;;;17.34;84.92;96439.63;4366377;32;20196;-60
2023/10/01 08:37:49;;;;;;;6.63;4.20;;;;;;;17.35;84.59;96435.03;4341536;32;20190;-60
2023/10/01 08:40:17;;;;;;;4.97;4.17;;;;;;;17.48;86.57;96434.94;4372154;32;20212;-60
2023/10/01 08:42:44;;;;;;;2.87;2.67;;;;;;;17.51;85.46;96428.16;4370102;32;20215;-61
2023/10/01 08:45:12;;;;;;;6.30;3.83;;;;;;;17.57;85.17;96432.28;4376080;32;20185;-61
2023/10/01 08:47:39;;;;;;;4.37;3.70;;;;;;;18.03;89.95;96434.50;4355375;32;20191;-62
2023/10/01 08:53:19;;;;;;;4.93;3.33;;;;;;;18.58;87.89;96433.13;4381541;32;20306;-61
2023/10/01 09:01:19;;;;;;;6.23;4.90;;;;;;;19.04;85.40;96457.47;4340854;32;20291;-61
2023/10/01 09:03:55;;;;;;;11.90;5.53;;;;;;;19.11;83.96;96452.41;4323052;32;20197;-61
2023/10/01 09:06:30;;;;;;;8.67;4.00;;;;;;;19.18;83.45;96450.00;4343740;32;20251;-61
2023/10/01 09:09:19;;;;;;;3.83;3.50;;;;;;;19.27;82.95;96449.22;4311348;32;20277;-61
2023/10/01 09:11:50;;;;;;;6.40;3.53;;;;;;;19.32;82.21;96446.34;4336225;32;20236;-61
2023/10/01 09:14:17;;;;;;;2.63;2.53;;;;;;;19.32;81.24;96447.16;4348477;32;20208;-61
2023/10/01 09:16:59;;;;;;;3.17;2.97;;;;;;;19.34;79.23;96444.91;4298690;32;20217;-61
2023/10/01 09:19:37;;;;;;;3.77;3.43;;;;;;;19.33;78.17;96448.69;4333025;32;20311;-61
2023/10/01 09:25:25;;;;;;;3.00;2.80;;;;;;;19.19;75.55;96448.09;4327449;32;20252;-61
2023/10/01 09:28:19;;;;;;;4.33;3.87;;;;;;;19.17;75.26;96443.03;4308211;32;20236;-61
2023/10/01 09:31:33;;;;;;;4.37;3.97;;;;;;;19.15;74.21;96444.47;4347230;32;20201;-61
2023/10/01 09:33:55;;;;;;;5.53;4.37;;;;;;;19.16;74.26;96448.75;4356409;32;20181;-61
2023/10/01 09:36:35;;;;;;;6.60;5.27;;;;;;;19.15;74.34;96442.56;4345137;32;20189;-61
2023/10/01 09:39:06;;;;;;;9.47;6.63;;;;;;;19.14;73.98;96443.69;4342093;32;20219;-61
2023/10/01 09:41:40;;;;;;;6.03;5.57;;;;;;;19.14;73.41;96445.59;4349218;32;20194;-61
2023/10/01 09:44:07;;;;;;;6.63;5.37;;;;;;;19.10;74.33;96455.44;4318932;32;20250;-61
2023/10/01 09:46:34;;;;;;;8.37;4.37;;;;;;;19.16;75.64;96449.53;4351889;32;20200;-61
2023/10/01 09:49:02;;;;;;;14.03;4.80;;;;;;;19.18;74.74;96447.31;4340710;32;20207;-61
2023/10/01 09:51:41;;;;;;;4.23;3.93;;;;;;;19.16;74.91;96454.91;4333345;32;20209;-65
2023/10/01 09:54:11;;;;;;;6.93;4.27;;;;;;;19.16;73.91;96449.53;4341359;32;20204;-65
2023/10/01 09:59:11;;;;;;;4.30;3.57;;;;;;;19.13;73.83;96457.44;4349086;32;20189;-65
2023/10/01 10:01:42;;;;;;;11.63;4.60;;;;;;;19.06;71.10;96455.28;4336561;32;20193;-64
2023/10/01 10:04:12;;;;;;;3.87;3.50;;;;;;;19.13;73.48;96458.25;4351713;32;20201;-65
2023/10/01 10:06:41;;;;;;;3.90;3.60;;;;;;;19.14;73.41;96446.38;4354614;32;20239;-65
2023/10/01 10:09:30;;;;;;;3.37;2.30;;;;;;;19.17;73.55;96451.13;4313408;32;20213;-65
2023/10/01 10:12:02;;;;;;;2.47;2.37;;;;;;;19.19;73.29;96443.53;4357308;32;20184;-65
2023/10/01 10:14:28;;;;;;;4.43;3.90;;;;;;;19.15;72.47;96444.47;4337483;32;20197;-65
2023/10/01 10:16:56;;;;;;;2.70;2.53;;;;;;;19.19;73.27;96437.34;4342033;32;20295;-65
2023/10/01 10:19:26;;;;;;;3.47;3.17;;;;;;;19.21;73.22;96452.06;4346227;32;20231;-65
2023/10/01 10:24:37;;;;;;;3.27;2.97;;;;;;;19.19;73.12;96446.22;4336701;32;20201;-65
2023/10/01 10:27:07;;;;;;;3.73;3.30;;;;;;;19.21;72.72;96446.69;4355369;32;20218;-65
2023/10/01 10:30:01;;;;;;;5.80;3.87;;;;;;;19.24;72.78;96439.88;4354593;32;20227;-65
2023/10/01 10:32:31;;;;;;;3.03;2.80;;;;;;;19.23;73.18;96444.47;4334891;32;20213;-65
2023/10/01 10:35:15;;;;;;;3.23;2.93;;;;;;;19.19;72.07;96440.81;4333066;32;20203;-65
2023/10/01 10:37:45;;;;;;;3.13;2.83;;;;;;;19.23;71.90;96444.47;4345385;32;20256;-65
2023/10/01 10:42:56;;;;;;;7.27;2.77;;;;;;;19.26;72.37;96439.56;4358191;32;20245;-65
2023/10/01 10:45:23;;;;;;;7.00;6.03;;;;;;;19.25;72.75;96435.28;4350427;32;20189;-65
2023/10/01 10:48:03;;;;;;;7.37;6.00;;;;;;;19.39;81.15;96443.94;4361131;32;20268;-65
2023/10/01 10:50:44;;;;;;;20.10;7.80;;;;;;;19.47;83.22;96435.84;4358661;32;20196;-65
2023/10/01 10:53:29;;;;;;;9.90;6.43;;;;;;;19.54;84.11;96427.28;4334933;32;20271;-64
2023/10/01 10:56:04;;;;;;;9.70;5.27;;;;;;;19.60;83.26;96426.00;4329783;32;20323;-65
2023/10/01 10:58:53;;;;;;;5.27;4.80;;;;;;;19.69;82.94;96426.75;4342579;32;20215;-65
2023/10/01 11:01:20;;;;;;;5.00;4.60;;;;;;;19.73;81.52;96430.38;4357632;32;20220;-65
2023/10/01 11:04:01;;;;;;;4.20;3.87;;;;;;;19.73;79.85;96430.38;4360671;32;20216;-66
2023/10/01 11:06:47;;;;;;;6.37;4.93;;;;;;;19.77;81.23;96425.13;4354870;32;20283;-65
2023/10/01 11:09:30;;;;;;;5.20;4.80;;;;;;;19.82;81.53;96419.56;4335039;32;20241;-65
2023/10/01 11:12:07;;;;;;;3.30;2.70;;;;;;;19.81;78.87;96410.69;4341992;32;20204;-65
2023/10/01 11:14:37;;;;;;;4.23;3.83;;;;;;;19.73;73.77;96419.63;4338835;32;20254;-65
2023/10/01 11:17:06;;;;;;;6.07;3.80;;;;;;;19.63;69.27;96409.19;4351149;32;20243;-66
2023/10/01 11:19:36;;;;;;;6.90;4.93;;;;;;;19.70;75.71;96404.09;4341682;32;20197;-65
2023/10/01 11:22:06;;;;;;;3.63;3.43;;;;;;;19.79;76.85;96401.34;4365686;32;20214;-65
2023/10/01 11:24:39;;;;;;;3.77;3.50;;;;;;;19.75;71.43;96398.50;4367111;32;20201;-65
2023/10/01 11:27:11;;;;;;;3.67;3.37;;;;;;;19.77;76.05;96400.88;4367697;32;20197;-64
2023/10/01 11:29:42;;;;;;;8.33;4.20;;;;;;;19.75;75.56;96395.03;4365209;32;20215;-65
2023/10/01 11:32:10;;;;;;;3.53;2.83;;;;;;;19.77;76.30;96393.59;4358392;32;20219;-64
2023/10/01 11:34:46;;;;;;;4.60;2.87;;;;;;;19.73;66.68;96390.00;4359759;32;20193;-66
2023/10/01 11:37:18;;;;;;;6.37;5.13;;;;;;;19.79;74.33;96385.19;4346822;32;20309;-66
2023/10/01 11:39:52;;;;;;;6.00;4.57;;;;;;;19.82;74.78;96390.72;4360259;32;20215;-65
2023/10/01 11:42:29;;;;;;;3.40;3.20;;;;;;;19.79;75.58;96385.97;4356581;32;20226;-66
2023/10/01 11:44:56;;;;;;;4.33;3.23;;;;;;;19.75;73.45;96387.75;4345571;32;20432;-67
2023/10/01 11:47:31;;;;;;;5.40;3.90;;;;;;;19.73;74.92;96373.84;4328502;32;20250;-66
2023/10/01 11:50:07;;;;;;;7.57;3.77;;;;;;;19.69;70.12;96378.28;4349697;32;20200;-65
2023/10/01 11:52:35;;;;;;;6.40;4.33;;;;;;;19.74;73.68;96372.72;4357698;32;20237;-66
2023/10/01 11:55:28;;;;;;;6.40;2.90;;;;;;;19.77;64.61;96372.03;4354333;32;20193;-66
2023/10/01 11:57:53;;;;;;;3.50;3.20;;;;;;;19.74;65.46;96367.34;4366730;32;20259;-65
2023/10/01 12:03:10;;;;;;;4.03;3.73;;;;;;;19.61;68.93;96362.97;4311399;32;20200;-66
2023/10/01 12:05:43;;;;;;;3.93;3.63;;;;;;;19.63;70.53;96349.97;4348712;32;20193;-65
2023/10/01 12:08:18;;;;;;;4.53;4.10;;;;;;;19.65;68.52;96358.50;4334168;32;20220;-65
2023/10/01 12:10:51;;;;;;;2.90;2.70;;;;;;;19.71;73.74;96354.53;4349302;32;20216;-66
2023/10/01 12:13:16;;;;;;;5.63;3.53;;;;;;;19.80;65.26;96352.53;4350663;32;20244;-65
2023/10/01 12:15:53;;;;;;;3.63;3.33;;;;;;;20.01;62.86;96349.09;4364617;32;20188;-65
2023/10/01 12:18:18;;;;;;;4.27;3.97;;;;;;;20.15;61.92;96346.94;4352297;32;20201;-65
2023/10/01 12:20:51;;;;;;;3.93;3.67;;;;;;;20.02;67.65;96345.28;4338503;32;20185;-65
2023/10/01 12:23:22;;;;;;;2.10;1.93;;;;;;;19.99;63.43;96345.94;4363669;32;20207;-65
2023/10/01 12:25:52;;;;;;;3.53;3.23;;;;;;;20.06;69.29;96348.91;4369030;32;20199;-65
2023/10/01 12:28:29;;;;;;;6.53;3.90;;;;;;;19.96;73.58;96344.66;4349563;32;20211;-65
2023/10/01 12:31:08;;;;;;;3.50;3.20;;;;;;;19.78;69.46;96341.31;4354722;32;20188;-65
2023/10/01 12:33:40;;;;;;;5.87;3.53;;;;;;;19.73;70.99;96341.53;4349643;32;20253;-62
2023/10/01 12:39:03;;;;;;;12.50;4.17;;;;;;;19.76;71.13;96338.16;4354371;32;20252;-65
2023/10/01 12:41:29;;;;;;;3.37;3.07;;;;;;;19.74;72.94;96339.62;4334582;32;20226;-65
2023/10/01 12:44:14;;;;;;;4.00;3.23;;;;;;;19.73;73.30;96329.97;4345858;32;20277;-65
2023/10/01 12:46:51;;;;;;;3.80;3.50;;;;;;;19.75;72.69;96323.09;4367295;32;20206;-65
2023/10/01 12:49:17;;;;;;;2.53;2.33;;;;;;;19.74;67.00;96323.47;4359690;32;20267;-65
2023/10/01 12:51:48;;;;;;;4.07;3.13;;;;;;;19.78;72.34;96322.47;4362745;32;20173;-65
2023/10/01 12:54:25;;;;;;;3.80;3.30;;;;;;;19.76;70.20;96323.91;4350718;32;20208;-65
2023/10/01 12:57:18;;;;;;;2.70;2.50;;;;;;;19.71;67.78;96322.22;4362193;32;20196;-65
2023/10/01 13:00:21;;;;;;;4.20;2.80;;;;;;;19.76;65.84;96323.91;4335407;32;20209;-65
2023/10/01 13:02:47;;;;;;;3.03;2.80;;;;;;;19.81;70.64;96311.03;4362821;32;20231;-65